Time;durP1;ratioP1;P1;durP2;ratioP2;P2;SDS_P1;SDS_P2;PMS_P1;PMS_P2;Temp;Humidity;BMP_temperature;BMP_pressure;BME280_temperature;BME280_humidity;BME280_pressure;Samples;Min_cycle;Max_cycle;Signal;HPM_P1;HPM_P2
2022/10/13 00:00:22;;;;;;;16.27;9.60;;;;;;;14.74;56.41;100503.66;5110685;28;20187;-44
2022/10/13 00:02:48;;;;;;;14.63;9.13;;;;;;;14.73;56.33;100504.66;5111017;28;20527;-43
2022/10/13 00:05:14;;;;;;;14.80;9.80;;;;;;;14.66;56.94;100512.75;5110590;28;20028;-42
2022/10/13 00:07:39;;;;;;;17.75;9.52;;;;;;;14.71;56.75;100506.75;5114129;28;20032;-44
2022/10/13 00:10:05;;;;;;;13.13;9.15;;;;;;;14.64;57.04;100517.50;5114669;28;20029;-44
2022/10/13 00:12:34;;;;;;;13.52;9.35;;;;;;;14.61;57.15;100517.09;5115382;28;20402;-43
2022/10/13 00:14:59;;;;;;;14.47;9.60;;;;;;;14.62;56.61;100514.22;5115629;28;20021;-44
2022/10/13 00:17:24;;;;;;;15.88;8.95;;;;;;;14.46;57.24;100510.09;5115560;28;20253;-42
2022/10/13 00:19:50;;;;;;;13.55;9.20;;;;;;;14.61;57.09;100517.09;5115194;28;20042;-43
2022/10/13 00:22:15;;;;;;;12.88;9.60;;;;;;;14.72;56.70;100516.44;5114728;28;20056;-44
2022/10/13 00:24:41;;;;;;;15.93;9.48;;;;;;;14.75;56.56;100517.84;5115413;28;20099;-44
2022/10/13 00:27:06;;;;;;;14.18;9.45;;;;;;;14.81;56.29;100514.31;5115295;28;20049;-44
2022/10/13 00:29:31;;;;;;;16.10;9.57;;;;;;;14.70;56.67;100521.19;5113664;28;20041;-44
2022/10/13 00:31:57;;;;;;;18.10;9.77;;;;;;;14.69;56.96;100519.53;5113741;28;20023;-45
2022/10/13 00:34:22;;;;;;;16.50;10.20;;;;;;;14.69;57.35;100516.03;5114877;28;20030;-43
2022/10/13 00:36:48;;;;;;;15.93;9.95;;;;;;;14.74;57.24;100517.03;5114982;27;20019;-42
2022/10/13 00:39:13;;;;;;;14.45;9.35;;;;;;;14.72;57.72;100513.75;5114826;28;20106;-43
2022/10/13 00:41:39;;;;;;;17.35;10.15;;;;;;;14.67;57.44;100516.25;5114409;28;20023;-44
2022/10/13 00:44:25;;;;;;;16.92;9.48;;;;;;;14.55;58.02;100517.91;5114721;28;20428;-43
2022/10/13 00:46:50;;;;;;;14.80;9.85;;;;;;;14.57;58.51;100515.88;5114231;28;20031;-44
2022/10/13 00:49:16;;;;;;;14.23;9.95;;;;;;;14.56;58.92;100520.34;5114793;28;20032;-44
2022/10/13 00:51:45;;;;;;;18.63;9.45;;;;;;;14.63;58.09;100515.84;5114999;28;20468;-43
2022/10/13 00:54:14;;;;;;;14.43;9.67;;;;;;;14.63;58.57;100517.69;5114787;28;20023;-44
2022/10/13 00:56:41;;;;;;;17.52;9.73;;;;;;;14.06;59.00;100501.31;5114912;28;20258;-44
2022/10/13 00:59:21;;;;;;;15.75;9.15;;;;;;;13.95;60.49;100521.50;5114784;28;20494;-44
2022/10/13 01:01:48;;;;;;;12.85;8.20;;;;;;;14.00;59.80;100515.53;5113485;28;20106;-44
2022/10/13 01:04:16;;;;;;;13.70;8.55;;;;;;;14.04;59.47;100508.72;5114219;28;20513;-44
2022/10/13 01:06:42;;;;;;;15.05;8.60;;;;;;;13.98;59.30;100518.41;5114811;28;20024;-44
2022/10/13 01:09:07;;;;;;;12.23;8.98;;;;;;;13.93;59.45;100512.84;5114558;28;20026;-44
2022/10/13 01:12:09;;;;;;;16.50;8.20;;;;;;;14.14;59.74;100509.13;5114190;28;20028;-45
2022/10/13 01:14:48;;;;;;;11.93;8.57;;;;;;;14.27;58.03;100510.97;5113804;28;20083;-44
2022/10/13 01:17:28;;;;;;;12.90;8.55;;;;;;;13.86;60.24;100507.50;5114078;28;20023;-45
2022/10/13 01:19:56;;;;;;;;;;;;;;;13.66;61.03;100502.16;5114723;27;20031;-43
2022/10/13 01:22:24;;;;;;;14.05;9.13;;;;;;;13.91;60.22;100500.72;5113862;28;19969;-46
2022/10/13 01:25:12;;;;;;;16.50;9.65;;;;;;;13.98;59.63;100499.69;5114007;28;20024;-45
2022/10/13 01:28:03;;;;;;;14.05;9.93;;;;;;;13.93;60.36;100498.66;5113732;28;20542;-44
2022/10/13 01:30:36;;;;;;;14.75;9.98;;;;;;;14.13;59.63;100493.28;5089895;28;20042;-43
2022/10/13 01:33:20;;;;;;;13.85;9.63;;;;;;;14.09;60.13;100490.22;5114378;28;20015;-43
2022/10/13 01:35:52;;;;;;;16.55;10.40;;;;;;;14.05;60.02;100496.97;5114062;28;20074;-44
2022/10/13 01:38:26;;;;;;;15.35;10.18;;;;;;;14.16;60.26;100495.53;5113889;28;20058;-44
2022/10/13 01:41:19;;;;;;;13.98;10.05;;;;;;;14.30;59.77;100494.50;5113594;28;20024;-43
2022/10/13 01:43:51;;;;;;;18.08;10.88;;;;;;;14.18;60.62;100496.97;5114235;28;20031;-45
2022/10/13 01:46:23;;;;;;;17.05;10.57;;;;;;;14.22;60.36;100494.69;5113232;27;20031;-42
2022/10/13 01:48:53;;;;;;;16.08;11.45;;;;;;;14.15;60.65;100489.38;5113997;28;20452;-43
2022/10/13 01:51:22;;;;;;;18.75;11.43;;;;;;;14.12;61.94;100491.63;5113854;28;20027;-44
2022/10/13 01:53:48;;;;;;;15.73;11.10;;;;;;;14.02;62.11;100494.75;5113463;28;20502;-44
2022/10/13 01:56:14;;;;;;;16.55;10.90;;;;;;;14.18;61.75;100488.94;5112997;28;20027;-43
2022/10/13 01:58:39;;;;;;;18.65;10.55;;;;;;;14.13;61.49;100487.94;5113249;28;20481;-42
2022/10/13 02:01:17;;;;;;;15.63;10.60;;;;;;;14.07;61.70;100484.25;5112989;28;20031;-43
2022/10/13 02:03:51;;;;;;;17.08;10.18;;;;;;;13.95;61.54;100489.38;5113667;28;20123;-43
2022/10/13 02:06:40;;;;;;;15.52;9.93;;;;;;;13.96;61.20;100483.00;5113485;28;20058;-43
2022/10/13 02:09:25;;;;;;;15.45;10.60;;;;;;;14.04;61.26;100473.94;5113560;28;20023;-44
2022/10/13 02:11:57;;;;;;;16.50;10.80;;;;;;;13.92;60.81;100484.47;5113077;27;20024;-43
2022/10/13 02:14:29;;;;;;;16.88;10.40;;;;;;;13.92;61.43;100481.78;5112777;28;20463;-43
2022/10/13 02:17:00;;;;;;;16.05;10.82;;;;;;;13.75;61.31;100464.53;5113152;28;20184;-46
2022/10/13 02:19:27;;;;;;;14.68;9.93;;;;;;;13.73;61.65;100470.06;5112677;28;20111;-43
2022/10/13 02:21:53;;;;;;;19.17;11.25;;;;;;;13.82;61.36;100476.84;5112677;28;20379;-43
2022/10/13 02:24:19;;;;;;;16.17;11.13;;;;;;;13.73;61.75;100478.09;5112687;28;20031;-44
2022/10/13 02:26:44;;;;;;;17.77;10.95;;;;;;;13.89;61.58;100477.66;5113340;28;20024;-43
2022/10/13 02:29:13;;;;;;;15.77;11.07;;;;;;;13.96;60.51;100476.84;5112010;28;20028;-44
2022/10/13 02:31:39;;;;;;;17.20;11.10;;;;;;;13.93;61.27;100480.75;5112717;28;20157;-43
2022/10/13 02:34:05;;;;;;;22.10;11.27;;;;;;;13.79;62.00;100479.94;5112840;28;20018;-43
2022/10/13 02:36:31;;;;;;;17.60;10.98;;;;;;;13.87;61.35;100482.38;5112714;28;20019;-43
2022/10/13 02:38:56;;;;;;;18.75;11.38;;;;;;;13.86;61.28;100479.94;5112737;28;20104;-44
2022/10/13 02:41:21;;;;;;;18.13;11.40;;;;;;;13.98;60.66;100472.91;5112449;28;20022;-43
2022/10/13 02:43:47;;;;;;;16.92;11.45;;;;;;;13.92;61.47;100481.78;5112649;28;20019;-46
2022/10/13 02:46:12;;;;;;;15.90;10.95;;;;;;;13.70;61.97;100478.50;5112417;28;20110;-44
2022/10/13 02:48:38;;;;;;;19.00;11.07;;;;;;;13.76;61.62;100479.53;5112370;28;20028;-43
2022/10/13 02:51:03;;;;;;;20.48;11.82;;;;;;;13.85;61.43;100473.75;5111738;28;20027;-43
2022/10/13 02:53:29;;;;;;;18.75;11.40;;;;;;;13.82;61.71;100481.38;5112295;28;20024;-42
2022/10/13 02:55:54;;;;;;;16.17;11.43;;;;;;;13.75;61.75;100480.56;5112211;28;20022;-42
2022/10/13 02:58:19;;;;;;;18.42;11.23;;;;;;;13.79;61.26;100476.44;5112053;28;20034;-43
2022/10/13 03:00:45;;;;;;;16.23;11.32;;;;;;;13.73;61.58;100474.56;5111688;28;20024;-44
2022/10/13 03:03:11;;;;;;;16.92;11.30;;;;;;;13.74;61.38;100474.38;5111918;28;20031;-43
2022/10/13 03:05:36;;;;;;;16.38;11.35;;;;;;;13.92;60.84;100478.25;5112569;28;20080;-43
2022/10/13 03:08:02;;;;;;;18.85;11.70;;;;;;;13.93;60.80;100470.03;5112424;28;20425;-44
2022/10/13 03:10:29;;;;;;;16.70;11.23;;;;;;;13.95;60.81;100467.97;5111541;28;20485;-43
2022/10/13 03:12:55;;;;;;;16.20;10.82;;;;;;;13.91;60.58;100473.97;5111664;28;20028;-45
2022/10/13 03:15:20;;;;;;;16.67;10.35;;;;;;;13.77;61.10;100473.16;5112329;27;20177;-44
2022/10/13 03:17:46;;;;;;;14.48;9.80;;;;;;;13.89;60.72;100469.63;5112025;28;20027;-45
2022/10/13 03:20:11;;;;;;;16.20;10.50;;;;;;;13.96;59.87;100471.50;5111466;28;20107;-43
2022/10/13 03:22:37;;;;;;;18.08;10.98;;;;;;;13.92;59.86;100478.25;5111172;28;20503;-43
2022/10/13 03:25:03;;;;;;;15.82;10.27;;;;;;;13.86;60.02;100475.41;5111966;28;20543;-44
2022/10/13 03:27:28;;;;;;;16.10;10.45;;;;;;;13.69;60.36;100472.31;5111835;28;20026;-43
2022/10/13 03:29:54;;;;;;;16.02;10.93;;;;;;;13.63;60.59;100469.63;5111884;28;20028;-44
2022/10/13 03:32:19;;;;;;;17.27;11.18;;;;;;;13.71;60.41;100463.25;5111007;28;20012;-43
2022/10/13 03:34:45;;;;;;;18.02;10.43;;;;;;;13.71;60.31;100463.25;5111653;28;20478;-44
2022/10/13 03:37:10;;;;;;;16.58;10.88;;;;;;;13.58;61.11;100464.91;5111468;28;20057;-44
2022/10/13 03:39:35;;;;;;;16.13;10.55;;;;;;;13.56;61.14;100468.84;5111422;28;20027;-42
2022/10/13 03:42:01;;;;;;;17.42;10.60;;;;;;;13.59;61.20;100466.56;5110553;28;20023;-42
2022/10/13 03:44:27;;;;;;;17.77;10.25;;;;;;;13.60;61.02;100457.50;5111124;28;20028;-43
2022/10/13 03:46:52;;;;;;;16.65;10.70;;;;;;;13.36;61.71;100452.78;5111363;28;20031;-43
2022/10/13 03:49:18;;;;;;;18.55;10.52;;;;;;;13.36;62.08;100461.59;5111464;28;20023;-44
2022/10/13 03:51:44;;;;;;;23.77;16.75;;;;;;;13.30;62.35;100457.91;5111239;28;20036;-44
2022/10/13 03:54:12;;;;;;;23.80;17.60;;;;;;;13.13;62.87;100456.59;5111480;28;20015;-43
2022/10/13 03:56:39;;;;;;;42.58;25.85;;;;;;;13.15;62.77;100451.06;5110369;28;20039;-42
2022/10/13 03:59:05;;;;;;;101.93;62.15;;;;;;;13.20;62.69;100449.44;5111744;28;20023;-47
2022/10/13 04:01:32;;;;;;;43.08;24.30;;;;;;;13.34;62.11;100446.81;5106593;28;20035;-44
2022/10/13 04:03:58;;;;;;;23.55;11.95;;;;;;;13.46;61.39;100455.84;5091142;28;20119;-42
2022/10/13 04:06:25;;;;;;;22.27;14.00;;;;;;;13.54;61.00;100454.84;5090902;28;20043;-43
2022/10/13 04:08:50;;;;;;;33.95;21.10;;;;;;;13.29;61.63;100452.75;5091143;28;20124;-44
2022/10/13 04:11:17;;;;;;;30.23;18.50;;;;;;;13.35;61.63;100457.31;5090521;28;20032;-42
2022/10/13 04:13:43;;;;;;;25.77;17.08;;;;;;;13.46;61.14;100455.84;5091049;28;20161;-44
2022/10/13 04:16:22;;;;;;;41.03;26.35;;;;;;;13.35;61.65;100462.66;5110662;28;20031;-44
2022/10/13 04:19:02;;;;;;;25.73;14.40;;;;;;;13.56;61.44;100463.50;5110839;28;20015;-44
2022/10/13 04:21:30;;;;;;;19.80;12.93;;;;;;;13.45;61.57;100459.56;5110223;28;20040;-44
2022/10/13 04:23:57;;;;;;;17.80;10.88;;;;;;;13.82;66.71;100470.66;5110416;28;20514;-43
2022/10/13 04:26:25;;;;;;;16.30;10.98;;;;;;;14.01;63.18;100469.00;5110334;28;20024;-44
2022/10/13 04:28:52;;;;;;;20.02;12.18;;;;;;;13.98;61.83;100474.78;5110474;28;20479;-44
2022/10/13 04:31:18;;;;;;;25.40;11.43;;;;;;;13.91;60.84;100473.97;5110218;28;20399;-45
2022/10/13 04:33:44;;;;;;;20.30;10.48;;;;;;;13.79;61.13;100471.91;5110414;28;20018;-42
2022/10/13 04:36:11;;;;;;;17.50;10.30;;;;;;;13.55;61.33;100473.34;5110066;28;20032;-44
2022/10/13 04:38:37;;;;;;;15.48;10.18;;;;;;;13.59;61.29;100471.91;5109178;28;20392;-43
2022/10/13 04:41:07;;;;;;;14.90;10.00;;;;;;;13.62;62.75;100471.50;5110309;28;20027;-42
2022/10/13 04:43:33;;;;;;;15.68;10.25;;;;;;;13.74;62.41;100473.56;5110357;28;20027;-43
2022/10/13 04:46:06;;;;;;;19.88;10.35;;;;;;;13.69;61.66;100471.50;5110209;28;20020;-44
2022/10/13 04:48:31;;;;;;;16.60;9.73;;;;;;;13.39;63.56;100468.41;5109822;28;20085;-44
2022/10/13 04:51:01;;;;;;;17.83;10.63;;;;;;;13.12;64.21;100471.00;5110138;28;20409;-43
2022/10/13 04:53:28;;;;;;;;;;;;;;;13.65;62.60;100471.09;5111566;28;20020;-43
2022/10/13 04:55:55;;;;;;;19.20;10.25;;;;;;;13.59;61.81;100474.56;5113520;28;19911;-43
2022/10/13 04:58:20;;;;;;;16.60;10.45;;;;;;;13.66;61.68;100480.75;5113464;28;20414;-43
2022/10/13 05:00:46;;;;;;;16.48;9.95;;;;;;;13.43;61.74;100475.81;5113270;28;20020;-43
2022/10/13 05:03:12;;;;;;;14.52;9.25;;;;;;;13.11;62.71;100469.34;5113440;28;20077;-43
2022/10/13 05:05:38;;;;;;;14.60;10.07;;;;;;;13.07;63.33;100486.81;5113761;28;20371;-42
2022/10/13 05:08:04;;;;;;;36.10;15.57;;;;;;;13.33;65.16;100485.25;5113894;28;20023;-42
2022/10/13 05:10:29;;;;;;;30.10;15.88;;;;;;;13.51;64.57;100482.00;5106578;28;20483;-42
2022/10/13 05:12:55;;;;;;;44.55;22.30;;;;;;;13.52;64.46;100476.44;5093531;28;20024;-42
2022/10/13 05:15:20;;;;;;;41.30;25.10;;;;;;;13.67;64.71;100476.25;5093430;28;20043;-42
2022/10/13 05:17:46;;;;;;;20.65;11.27;;;;;;;13.79;62.84;100479.94;5096693;27;20115;-42
2022/10/13 05:20:11;;;;;;;22.98;12.25;;;;;;;14.17;62.04;100489.97;5111471;28;20024;-34
2022/10/13 05:22:36;;;;;;;84.22;50.42;;;;;;;14.40;61.71;100480.66;5108094;28;20594;-42
2022/10/13 05:25:02;;;;;;;28.75;17.00;;;;;;;14.61;59.57;100492.97;5113167;28;20046;-44
2022/10/13 05:27:28;;;;;;;14.13;9.40;;;;;;;14.57;58.40;100487.22;5113028;28;20039;-45
2022/10/13 05:29:53;;;;;;;15.13;9.65;;;;;;;14.77;58.08;100492.47;5111089;28;20051;-45
2022/10/13 05:32:19;;;;;;;20.67;9.85;;;;;;;14.62;58.84;100487.41;5098404;28;20031;-36
2022/10/13 05:34:47;;;;;;;16.77;10.13;;;;;;;14.77;58.03;100483.63;5092093;28;20020;-37
2022/10/13 05:37:12;;;;;;;19.85;9.45;;;;;;;14.91;57.95;100489.75;5101701;28;20047;-34
2022/10/13 05:39:38;;;;;;;16.17;9.60;;;;;;;15.00;57.67;100491.16;5112456;28;20030;-35
2022/10/13 05:42:03;;;;;;;13.77;9.07;;;;;;;15.27;56.80;100493.69;5112364;28;20039;-35
2022/10/13 05:44:29;;;;;;;14.82;9.18;;;;;;;14.70;57.58;100494.41;5112215;27;20023;-42
2022/10/13 05:46:55;;;;;;;15.63;8.80;;;;;;;14.89;57.62;100498.03;5112287;28;20043;-45
2022/10/13 05:49:21;;;;;;;17.75;9.10;;;;;;;15.01;58.04;100495.47;5112607;28;20020;-36
2022/10/13 05:51:49;;;;;;;22.23;9.63;;;;;;;15.18;57.57;100506.53;5112271;28;20034;-35
2022/10/13 05:54:20;;;;;;;15.98;8.60;;;;;;;15.35;57.12;100509.53;5112537;28;20593;-36
2022/10/13 05:56:55;;;;;;;14.40;8.60;;;;;;;15.12;56.36;100505.53;5112473;27;20681;-36
2022/10/13 05:59:23;;;;;;;16.98;9.10;;;;;;;15.35;56.95;100509.53;5105841;28;20024;-36
2022/10/13 06:01:50;;;;;;;46.80;30.90;;;;;;;15.63;55.65;100509.09;5093585;28;20052;-36
2022/10/13 06:04:23;;;;;;;24.77;14.50;;;;;;;15.88;54.58;100505.63;5094913;28;20024;-36
2022/10/13 06:06:48;;;;;;;19.60;10.30;;;;;;;15.64;54.86;100508.06;5112217;28;20027;-36
2022/10/13 06:09:14;;;;;;;14.32;8.80;;;;;;;15.56;55.74;100511.84;5111398;28;20025;-37
2022/10/13 06:11:40;;;;;;;18.95;8.77;;;;;;;15.95;55.54;100512.56;5110916;28;20084;-37
2022/10/13 06:14:05;;;;;;;14.82;8.65;;;;;;;16.37;53.63;100510.13;5110294;28;20516;-36
2022/10/13 06:16:30;;;;;;;14.40;9.02;;;;;;;16.81;52.38;100515.41;5109489;28;20026;-36
2022/10/13 06:18:56;;;;;;;16.88;8.70;;;;;;;17.30;51.74;100510.84;5109294;28;20026;-36
2022/10/13 06:21:21;;;;;;;16.20;8.57;;;;;;;17.85;49.47;100509.00;5108951;28;20047;-36
2022/10/13 06:23:47;;;;;;;16.27;8.07;;;;;;;18.10;49.28;100514.97;5108884;28;20016;-36
2022/10/13 06:26:12;;;;;;;15.48;7.75;;;;;;;18.17;48.33;100520.25;5109236;28;20262;-36
2022/10/13 06:28:38;;;;;;;13.27;8.55;;;;;;;18.35;47.90;100512.06;5108974;28;20038;-36
2022/10/13 06:31:05;;;;;;;13.93;8.05;;;;;;;18.53;47.15;100507.56;5109260;28;20022;-37
2022/10/13 06:33:31;;;;;;;18.00;8.75;;;;;;;18.62;46.86;100510.69;5110670;28;20024;-36
2022/10/13 06:36:01;;;;;;;14.43;7.35;;;;;;;18.85;45.71;100504.44;5109433;28;20020;-37
2022/10/13 06:38:26;;;;;;;11.23;7.28;;;;;;;19.21;45.44;100497.03;5110557;28;20024;-37
2022/10/13 06:40:51;;;;;;;13.70;7.70;;;;;;;19.48;44.73;100498.06;5109016;28;20081;-36
2022/10/13 06:43:17;;;;;;;19.13;8.18;;;;;;;19.57;44.76;100501.16;5110730;28;20441;-36
2022/10/13 06:45:42;;;;;;;12.75;7.40;;;;;;;19.97;43.65;100504.78;5111968;28;20536;-36
2022/10/13 06:48:08;;;;;;;15.85;7.75;;;;;;;19.78;44.18;100499.66;5111816;28;20035;-37
2022/10/13 06:50:33;;;;;;;11.60;6.85;;;;;;;20.03;42.99;100496.53;5111159;28;20139;-37
2022/10/13 06:52:59;;;;;;;15.93;7.43;;;;;;;20.22;42.51;100499.78;5109639;28;20030;-37
2022/10/13 06:55:24;;;;;;;13.32;7.32;;;;;;;20.14;42.36;100500.19;5111159;28;20043;-37
2022/10/13 06:57:50;;;;;;;15.55;7.43;;;;;;;20.44;42.10;100499.78;5109366;28;20085;-35
2022/10/13 07:00:16;;;;;;;12.82;7.35;;;;;;;20.87;41.71;100506.28;5111079;28;20103;-35
2022/10/13 07:02:41;;;;;;;10.70;6.88;;;;;;;20.94;41.23;100497.97;5109326;28;20132;-37
2022/10/13 07:05:07;;;;;;;12.35;8.63;;;;;;;20.64;41.41;100506.56;5108504;28;20019;-36
2022/10/13 07:07:32;;;;;;;12.32;7.65;;;;;;;21.02;40.30;100504.84;5109001;28;20062;-36
2022/10/13 07:09:58;;;;;;;12.32;7.10;;;;;;;21.01;40.13;100500.47;5109212;28;20023;-42
2022/10/13 07:12:23;;;;;;;11.73;6.72;;;;;;;21.22;39.14;100496.91;5108753;28;20023;-44
2022/10/13 07:14:48;;;;;;;10.73;7.03;;;;;;;21.27;38.98;100494.25;5108929;28;20420;-43
2022/10/13 07:17:14;;;;;;;13.63;6.60;;;;;;;21.31;38.90;100489.16;5108411;28;20098;-42
2022/10/13 07:19:39;;;;;;;12.80;6.55;;;;;;;21.51;38.14;100485.00;5109248;28;20043;-42
2022/10/13 07:22:05;;;;;;;10.40;6.55;;;;;;;21.59;38.02;100484.53;5109039;28;20039;-43
2022/10/13 07:24:30;;;;;;;12.30;7.75;;;;;;;21.66;38.33;100485.13;5109620;28;20068;-43
2022/10/13 07:26:55;;;;;;;11.70;7.30;;;;;;;21.44;39.23;100493.38;5110138;28;20517;-40
2022/10/13 07:29:21;;;;;;;12.00;7.13;;;;;;;21.35;39.41;100486.75;5109970;28;20035;-42
2022/10/13 07:31:46;;;;;;;13.02;7.35;;;;;;;21.56;39.35;100490.47;5110485;28;20023;-42
2022/10/13 07:34:14;;;;;;;10.50;7.38;;;;;;;21.93;39.15;100476.91;5110617;28;20018;-42
2022/10/13 07:36:40;;;;;;;9.57;6.88;;;;;;;22.14;39.31;100475.16;5110491;28;20026;-42
2022/10/13 07:39:09;;;;;;;10.18;7.60;;;;;;;22.31;39.24;100468.75;5110152;28;20030;-42
2022/10/13 07:41:35;;;;;;;12.05;7.07;;;;;;;22.77;38.29;100474.34;5109979;28;20096;-43
2022/10/13 07:44:01;;;;;;;16.80;6.80;;;;;;;22.93;37.93;100476.03;5110246;28;20031;-43
2022/10/13 07:46:26;;;;;;;11.05;6.35;;;;;;;23.13;37.96;100474.47;5110420;28;20027;-42
2022/10/13 07:48:52;;;;;;;8.98;6.50;;;;;;;23.41;37.22;100460.38;5110337;28;20019;-44
2022/10/13 07:51:19;;;;;;;9.73;6.68;;;;;;;23.67;36.51;100452.22;5110258;28;20499;-44
2022/10/13 07:53:45;;;;;;;12.93;6.65;;;;;;;23.85;36.40;100456.28;5110401;28;20073;-44
2022/10/13 07:56:13;;;;;;;11.80;7.10;;;;;;;23.79;36.95;100458.19;5110124;28;20024;-44
2022/10/13 07:58:40;;;;;;;8.90;6.55;;;;;;;24.24;36.24;100450.22;5110234;28;20455;-44
2022/10/13 08:01:07;;;;;;;14.60;7.07;;;;;;;24.47;35.81;100450.69;5110123;28;20096;-43
2022/10/13 08:03:32;;;;;;;10.93;6.90;;;;;;;24.74;35.02;100461.16;5110452;28;20027;-43
2022/10/13 08:06:00;;;;;;;9.07;5.97;;;;;;;24.98;34.66;100456.66;5110186;28;20019;-42
2022/10/13 08:08:26;;;;;;;11.63;6.50;;;;;;;24.76;35.18;100461.69;5110490;28;20023;-42
2022/10/13 08:10:51;;;;;;;9.43;6.22;;;;;;;25.06;35.06;100455.25;5109260;28;20027;-43
2022/10/13 08:13:17;;;;;;;14.13;6.60;;;;;;;25.38;34.70;100451.25;5110227;28;20023;-44
2022/10/13 08:15:43;;;;;;;10.63;7.15;;;;;;;24.44;36.15;100441.16;5109994;28;20038;-44
2022/10/13 08:18:10;;;;;;;10.80;7.28;;;;;;;25.14;35.02;100448.41;5110136;28;20506;-42
2022/10/13 08:20:43;;;;;;;13.02;7.90;;;;;;;24.93;35.35;100440.34;5109788;28;20027;-43
2022/10/13 08:23:09;;;;;;;14.85;8.73;;;;;;;24.44;35.78;100440.34;5110336;28;20210;-42
2022/10/13 08:25:39;;;;;;;15.10;7.97;;;;;;;24.48;36.14;100435.97;5110283;28;20035;-43
2022/10/13 08:28:27;;;;;;;15.10;7.28;;;;;;;24.85;35.84;100438.25;5111518;28;20091;-46
2022/10/13 08:30:53;;;;;;;26.90;18.65;;;;;;;25.08;35.29;100435.91;5113613;28;20107;-45
2022/10/13 08:33:19;;;;;;;15.48;7.55;;;;;;;25.13;35.06;100441.31;5113972;28;20103;-42
2022/10/13 08:35:45;;;;;;;12.57;7.00;;;;;;;25.75;34.38;100436.19;5113798;28;20118;-43
2022/10/13 08:38:10;;;;;;;11.45;7.53;;;;;;;25.86;33.92;100424.06;5113841;28;20036;-44
2022/10/13 08:40:37;;;;;;;15.00;6.82;;;;;;;26.37;33.35;100419.97;5113509;28;20104;-45
2022/10/13 08:43:15;;;;;;;14.38;7.18;;;;;;;26.33;32.45;100418.91;5112806;27;20028;-43
2022/10/13 08:45:41;;;;;;;8.30;6.28;;;;;;;24.98;34.64;100426.72;5113642;28;20034;-43
2022/10/13 08:48:12;;;;;;;9.65;6.45;;;;;;;25.79;33.48;100409.97;5113658;28;20035;-44
2022/10/13 08:50:41;;;;;;;11.43;6.30;;;;;;;26.52;32.49;100408.84;5113673;28;20483;-43
2022/10/13 08:53:12;;;;;;;11.60;6.18;;;;;;;27.03;31.85;100417.41;5113358;28;20030;-44
2022/10/13 08:55:50;;;;;;;12.90;6.18;;;;;;;26.90;32.04;100427.97;5113949;28;20039;-44
2022/10/13 08:58:25;;;;;;;7.97;5.22;;;;;;;27.08;31.24;100420.06;5113309;28;20031;-42
2022/10/13 09:01:20;;;;;;;10.55;5.85;;;;;;;26.27;32.85;100420.91;5113406;28;20028;-44
2022/10/13 09:03:59;;;;;;;11.60;6.18;;;;;;;26.79;32.21;100421.03;5105042;28;20050;-44
2022/10/13 09:06:45;;;;;;;;;;;;;;;26.26;32.52;100424.72;5114095;28;20087;-42
2022/10/13 09:09:13;;;;;;;11.27;6.40;;;;;;;26.33;32.30;100424.34;5112685;28;19908;-45
2022/10/13 09:11:44;;;;;;;16.55;9.73;;;;;;;26.48;32.60;100420.63;5113066;28;20034;-43
2022/10/13 09:14:29;;;;;;;8.57;6.18;;;;;;;25.91;33.15;100409.56;5113164;28;20132;-42
2022/10/13 09:17:10;;;;;;;8.18;6.03;;;;;;;26.41;32.58;100406.53;5113483;28;20043;-42
2022/10/13 09:19:36;;;;;;;6.32;5.57;;;;;;;26.65;32.04;100401.03;5113312;28;20027;-43
2022/10/13 09:22:26;;;;;;;10.48;5.63;;;;;;;27.24;31.11;100402.28;5112502;28;20062;-43
2022/10/13 09:25:08;;;;;;;8.93;5.78;;;;;;;27.10;31.37;100396.78;5099741;28;20031;-42
2022/10/13 09:27:47;;;;;;;7.32;5.40;;;;;;;27.17;30.83;100390.13;5112854;28;20051;-43
2022/10/13 09:30:26;;;;;;;10.20;5.70;;;;;;;26.82;31.31;100389.59;5112999;28;20107;-43
2022/10/13 09:33:14;;;;;;;9.77;5.18;;;;;;;27.30;31.04;100392.94;5112722;28;20062;-42
2022/10/13 09:35:43;;;;;;;6.15;4.90;;;;;;;27.49;30.42;100389.31;5099530;28;20119;-42
2022/10/13 09:38:24;;;;;;;8.88;5.18;;;;;;;27.50;30.46;100388.22;5112726;28;20020;-41
2022/10/13 09:41:20;;;;;;;11.07;5.28;;;;;;;27.22;30.62;100381.84;5111335;28;20024;-44
2022/10/13 09:43:45;;;;;;;7.22;4.95;;;;;;;27.36;30.71;100381.91;5095487;28;20036;-43
2022/10/13 09:46:26;;;;;;;7.50;5.05;;;;;;;27.68;29.72;100372.84;5112366;28;20019;-43
2022/10/13 09:48:55;;;;;;;9.20;5.18;;;;;;;27.90;29.69;100360.44;5112372;28;20028;-43
2022/10/13 09:51:26;;;;;;;6.72;4.90;;;;;;;27.81;29.69;100368.50;5112274;28;20028;-43
2022/10/13 09:53:52;;;;;;;8.07;4.88;;;;;;;27.49;29.32;100362.81;5112279;28;20123;-44
2022/10/13 09:56:25;;;;;;;7.65;4.88;;;;;;;27.52;30.05;100360.59;5111652;27;20570;-42
2022/10/13 09:59:11;;;;;;;6.50;4.85;;;;;;;27.48;30.07;100357.66;5112084;28;20026;-44
2022/10/13 10:01:41;;;;;;;9.35;4.38;;;;;;;27.89;29.54;100345.94;5111907;28;20019;-45
2022/10/13 10:04:12;;;;;;;8.38;5.60;;;;;;;28.07;29.32;100349.69;5112447;28;20033;-44
2022/10/13 10:06:39;;;;;;;9.68;5.10;;;;;;;28.01;28.51;100342.72;5111834;28;20031;-45
2022/10/13 10:09:33;;;;;;;7.25;5.00;;;;;;;27.20;30.22;100343.09;5112104;28;20070;-46
2022/10/13 10:12:00;;;;;;;10.40;5.05;;;;;;;26.98;29.74;100336.38;5111718;28;20345;-43
2022/10/13 10:14:31;;;;;;;9.77;5.50;;;;;;;27.02;29.72;100329.22;5111622;28;20107;-46
2022/10/13 10:17:13;;;;;;;8.85;5.18;;;;;;;26.89;30.22;100317.13;5111709;28;20016;-45
2022/10/13 10:19:41;;;;;;;10.00;5.45;;;;;;;26.97;29.82;100323.03;5111449;28;20470;-44
2022/10/13 10:22:13;;;;;;;9.20;5.85;;;;;;;26.72;30.93;100330.53;5111240;28;20047;-44
2022/10/13 10:25:16;;;;;;;11.55;5.60;;;;;;;27.11;29.43;100313.75;5111270;28;20127;-44
2022/10/13 10:27:50;;;;;;;11.52;8.70;;;;;;;27.06;30.66;100302.13;5111367;28;20558;-43
2022/10/13 10:30:19;;;;;;;10.20;6.13;;;;;;;27.57;29.47;100301.19;5110600;28;20092;-44
2022/10/13 10:32:53;;;;;;;11.10;5.45;;;;;;;27.09;29.53;100293.28;5111601;28;20156;-44
2022/10/13 10:35:21;;;;;;;10.02;5.50;;;;;;;25.88;31.26;100287.47;5111917;28;20051;-44
2022/10/13 10:38:01;;;;;;;7.43;5.10;;;;;;;26.09;30.89;100283.41;5111311;28;20462;-46
2022/10/13 10:40:45;;;;;;;13.48;5.90;;;;;;;25.88;31.90;100271.94;5109749;28;20030;-46
2022/10/13 10:43:19;;;;;;;6.80;5.07;;;;;;;26.06;31.65;100269.53;5111434;28;20035;-44
2022/10/13 10:45:46;;;;;;;8.90;5.57;;;;;;;25.50;32.15;100279.22;5111681;28;20110;-46
2022/10/13 10:48:38;;;;;;;9.65;5.95;;;;;;;25.13;32.59;100277.94;5111519;28;20037;-43
2022/10/13 10:51:11;;;;;;;9.73;5.75;;;;;;;25.59;32.50;100277.50;5109881;28;20521;-46
2022/10/13 10:53:57;;;;;;;5.90;5.00;;;;;;;25.42;32.38;100275.22;5111647;28;20129;-44
2022/10/13 10:56:32;;;;;;;13.70;5.95;;;;;;;25.70;32.00;100256.34;5111796;28;20041;-42
2022/10/13 10:59:06;;;;;;;9.48;6.20;;;;;;;25.48;32.40;100249.53;5111222;28;20019;-44
2022/10/13 11:01:56;;;;;;;9.13;6.50;;;;;;;25.20;32.10;100248.47;5110455;28;20027;-46
2022/10/13 11:04:44;;;;;;;11.10;7.05;;;;;;;25.14;32.83;100244.19;5110974;28;20024;-43
2022/10/13 11:07:23;;;;;;;14.05;6.68;;;;;;;25.72;31.96;100244.06;5110898;28;20487;-46
2022/10/13 11:09:49;;;;;;;13.23;8.13;;;;;;;25.87;31.35;100239.50;5111261;28;20019;-43
2022/10/13 11:12:17;;;;;;;13.98;9.27;;;;;;;25.68;31.93;100228.59;5110322;28;20031;-46
2022/10/13 11:14:53;;;;;;;11.73;7.63;;;;;;;25.41;32.41;100237.38;5111094;28;20020;-44
2022/10/13 11:17:28;;;;;;;46.25;34.03;;;;;;;25.77;31.92;100226.84;5111330;28;20050;-43
2022/10/13 11:19:54;;;;;;;16.10;9.68;;;;;;;25.56;32.23;100216.19;5111454;28;20066;-43
2022/10/13 11:22:22;;;;;;;15.88;9.52;;;;;;;25.66;32.10;100211.72;5110310;28;20127;-41
2022/10/13 11:24:53;;;;;;;14.18;8.93;;;;;;;26.25;31.11;100209.53;5111244;28;20037;-45
2022/10/13 11:27:40;;;;;;;12.35;7.88;;;;;;;25.54;31.64;100212.94;5110728;28;20019;-45